createdAt,value
2022-09-13T00:03:13.860Z,14.00
2022-09-13T00:07:17.585Z,14.30
2022-09-13T00:11:13.811Z,14.50
2022-09-13T00:15:10.497Z,11.00
2022-09-13T00:19:05.189Z,11.20
2022-09-13T00:22:58.877Z,13.10
2022-09-13T00:27:05.586Z,13.80
2022-09-13T00:30:58.616Z,18.50
2022-09-13T00:34:34.211Z,16.70
2022-09-13T00:38:38.102Z,13.70
2022-09-13T00:42:42.008Z,14.60
2022-09-13T00:46:38.759Z,14.10
2022-09-13T00:50:41.289Z,16.50
2022-09-13T00:54:28.377Z,17.10
2022-09-13T00:58:32.228Z,20.10
2022-09-13T01:02:38.846Z,16.10
2022-09-13T01:06:38.993Z,18.60
2022-09-13T01:10:42.889Z,19.00
2022-09-13T01:14:39.797Z,17.40
2022-09-13T01:18:15.696Z,15.70
2022-09-13T01:22:34.921Z,15.40
2022-09-13T01:26:44.639Z,18.70
2022-09-13T01:30:42.954Z,15.10
2022-09-13T01:34:58.690Z,15.80
2022-09-13T01:38:42.490Z,14.90
2022-09-13T01:43:04.231Z,16.80
2022-09-13T01:47:20.091Z,15.90
2022-09-13T01:51:39.815Z,19.60
2022-09-13T01:55:29.663Z,18.20
2022-09-13T01:59:36.488Z,14.70
2022-09-13T02:03:46.309Z,15.90
2022-09-13T02:07:31.321Z,17.10
2022-09-13T02:11:25.119Z,19.00
2022-09-13T02:15:31.792Z,18.80
2022-09-13T02:19:26.841Z,16.70
2022-09-13T02:23:30.709Z,16.60
2022-09-13T02:27:25.046Z,17.60
2022-09-13T02:31:28.537Z,18.00
2022-09-13T02:35:44.398Z,17.50
2022-09-13T02:39:55.991Z,18.00
2022-09-13T02:43:57.380Z,17.10
2022-09-13T02:48:05.022Z,20.10
2022-09-13T02:52:11.523Z,18.30
2022-09-13T02:56:39.708Z,17.90
2022-09-13T03:00:33.492Z,19.10
2022-09-13T03:04:37.353Z,21.40
2022-09-13T03:08:23.613Z,19.70
2022-09-13T03:12:36.497Z,21.50
2022-09-13T03:16:51.078Z,20.50
2022-09-13T03:21:00.877Z,21.60
2022-09-13T03:25:26.537Z,25.00
2022-09-13T03:29:31.755Z,21.50
2022-09-13T03:33:29.757Z,21.70
2022-09-13T03:37:35.389Z,21.10
2022-09-13T03:41:35.236Z,20.70
2022-09-13T03:45:21.624Z,23.70
2022-09-13T03:49:18.086Z,22.40
2022-09-13T03:53:04.394Z,22.90
2022-09-13T03:57:17.277Z,21.20
2022-09-13T04:01:21.200Z,22.10
2022-09-13T04:05:24.012Z,21.00
2022-09-13T04:08:57.833Z,20.80
2022-09-13T04:12:44.596Z,22.30
2022-09-13T04:16:08.472Z,24.00
2022-09-13T04:20:02.999Z,24.90
2022-09-13T04:23:44.467Z,21.70
2022-09-13T04:27:42.019Z,22.10
2022-09-13T04:31:28.761Z,19.60
2022-09-13T04:35:22.428Z,22.60
2022-09-13T04:38:49.274Z,21.10
2022-09-13T04:42:41.793Z,22.60
2022-09-13T04:46:15.513Z,21.20
2022-09-13T04:49:50.624Z,21.10
2022-09-13T04:53:45.518Z,23.20
2022-09-13T04:57:09.012Z,21.90
2022-09-13T05:00:51.523Z,22.00
2022-09-13T05:04:46.340Z,19.40
2022-09-13T05:08:15.071Z,22.00
2022-09-13T05:12:00.438Z,21.40
2022-09-13T05:15:56.764Z,26.50
2022-09-13T05:19:40.108Z,24.10
2022-09-13T05:23:24.807Z,28.00
2022-09-13T05:26:46.023Z,23.80
2022-09-13T05:30:32.635Z,29.40
2022-09-13T05:34:18.839Z,29.70
2022-09-13T05:37:49.473Z,27.60
2022-09-13T05:41:34.183Z,28.50
2022-09-13T05:44:59.874Z,26.90
2022-09-13T05:48:33.645Z,24.40
2022-09-13T05:51:45.896Z,26.60
2022-09-13T05:54:57.435Z,25.70
2022-09-13T05:58:40.297Z,26.30
2022-09-13T06:01:55.309Z,24.50
2022-09-13T06:05:33.792Z,27.50
2022-09-13T06:09:27.957Z,29.70
2022-09-13T06:13:32.093Z,32.20
2022-09-13T06:17:36.256Z,32.90
2022-09-13T06:20:54.789Z,33.60
2022-09-13T06:24:51.311Z,35.80
2022-09-13T06:28:00.104Z,38.00
2022-09-13T06:31:43.909Z,39.90
2022-09-13T06:35:48.342Z,35.60
2022-09-13T06:38:54.868Z,31.10
2022-09-13T06:42:27.502Z,31.60
2022-09-13T06:46:11.326Z,28.90
2022-09-13T06:49:39.369Z,29.00
2022-09-13T06:53:05.344Z,25.30
2022-09-13T06:56:58.249Z,21.90
2022-09-13T07:00:55.917Z,23.30
2022-09-13T07:04:20.720Z,21.60
2022-09-13T07:07:32.716Z,25.30
2022-09-13T07:10:45.515Z,19.70
2022-09-13T07:14:08.339Z,20.40
2022-09-13T07:17:15.925Z,20.20
2022-09-13T07:20:12.796Z,16.10
2022-09-13T07:23:19.301Z,19.60
2022-09-13T07:26:12.657Z,17.50
2022-09-13T07:29:52.953Z,17.40
2022-09-13T07:33:56.944Z,21.10
2022-09-13T07:37:20.642Z,18.70
2022-09-13T07:40:36.827Z,17.80
2022-09-13T07:43:37.484Z,19.50
2022-09-13T07:49:45.746Z,19.30
2022-09-13T07:52:59.457Z,18.40
2022-09-13T07:56:21.299Z,13.80
2022-09-13T07:59:37.089Z,14.80
2022-09-13T08:02:32.584Z,14.70
2022-09-13T08:05:42.888Z,16.40
2022-09-13T08:09:13.705Z,14.60
2022-09-13T08:12:39.746Z,12.90
2022-09-13T08:15:48.842Z,13.40
2022-09-13T08:19:23.433Z,14.50
2022-09-13T08:22:57.221Z,13.50
2022-09-13T08:26:25.207Z,12.00
2022-09-13T08:30:01.775Z,12.00
2022-09-13T08:33:35.553Z,14.70
2022-09-13T08:36:32.245Z,9.30
2022-09-13T08:39:48.708Z,11.00
2022-09-13T08:42:49.680Z,13.20
2022-09-13T08:46:19.322Z,9.20
2022-09-13T08:49:50.801Z,9.10
2022-09-13T08:53:08.404Z,11.10
2022-09-13T08:56:55.981Z,9.80
2022-09-13T09:00:50.021Z,10.70
2022-09-13T09:04:09.490Z,10.50
2022-09-13T09:07:27.582Z,8.40
2022-09-13T09:10:51.179Z,11.50
2022-09-13T09:14:11.154Z,10.90
2022-09-13T09:16:58.500Z,10.40
2022-09-13T09:20:12.116Z,9.50
2022-09-13T09:24:07.458Z,9.00
2022-09-13T09:27:57.425Z,9.60
2022-09-13T09:31:23.981Z,10.00
2022-09-13T09:34:58.403Z,9.70
2022-09-13T09:38:03.045Z,8.10
2022-09-13T09:41:36.022Z,8.80
2022-09-13T09:44:33.887Z,10.40
2022-09-13T09:47:29.628Z,7.20
2022-09-13T09:50:56.273Z,7.80
2022-09-13T09:54:39.237Z,10.30
2022-09-13T09:58:05.073Z,7.50
2022-09-13T10:01:46.741Z,8.00
2022-09-13T10:04:54.515Z,8.20
2022-09-13T10:08:22.736Z,10.20
2022-09-13T10:11:47.794Z,7.40
2022-09-13T10:15:12.738Z,8.00
2022-09-13T10:18:44.347Z,10.70
2022-09-13T10:21:48.473Z,9.00
2022-09-13T10:25:02.806Z,10.10
2022-09-13T10:28:50.705Z,7.50
2022-09-13T10:32:20.234Z,11.30
2022-09-13T10:35:32.033Z,10.10
2022-09-13T10:38:50.355Z,10.80
2022-09-13T10:41:59.217Z,12.80
2022-09-13T10:45:22.577Z,13.10
2022-09-13T10:48:28.595Z,13.10
2022-09-13T10:51:39.801Z,12.30
2022-09-13T10:54:49.996Z,10.90
2022-09-13T10:57:42.627Z,11.10
2022-09-13T11:01:21.613Z,11.50
2022-09-13T11:04:42.611Z,11.70
2022-09-13T11:07:38.204Z,14.90
2022-09-13T11:11:07.383Z,10.40
2022-09-13T11:14:49.409Z,12.90
2022-09-13T11:18:21.913Z,13.90
2022-09-13T11:21:46.762Z,13.20
2022-09-13T11:28:26.783Z,11.30
2022-09-13T11:32:09.561Z,12.00
2022-09-13T11:35:37.096Z,12.50
2022-09-13T11:39:13.707Z,10.90
2022-09-13T11:43:14.835Z,11.80
2022-09-13T11:46:45.845Z,10.40
2022-09-13T11:50:13.683Z,10.40
2022-09-13T11:54:25.392Z,11.60
2022-09-13T11:57:54.768Z,14.50
2022-09-13T12:01:48.698Z,13.80
2022-09-13T12:05:22.017Z,9.60
2022-09-13T12:09:18.738Z,11.40
2022-09-13T12:12:29.172Z,9.20
2022-09-13T12:15:51.762Z,10.90
2022-09-13T12:19:39.931Z,10.00
2022-09-13T12:22:55.418Z,13.30
2022-09-13T12:26:14.857Z,11.10
2022-09-13T12:29:18.151Z,10.00
2022-09-13T12:32:15.407Z,12.40
2022-09-13T12:36:00.151Z,9.50
2022-09-13T12:39:38.530Z,9.50
2022-09-13T12:43:20.146Z,13.10
2022-09-13T12:46:57.508Z,11.40
2022-09-13T12:50:21.579Z,12.70
2022-09-13T12:53:42.588Z,13.70
2022-09-13T12:56:40.405Z,10.10
2022-09-13T13:00:51.419Z,12.50
2022-09-13T13:04:24.321Z,8.30
2022-09-13T13:07:48.792Z,12.00
2022-09-13T13:11:28.194Z,10.10
2022-09-13T13:15:00.827Z,12.40
2022-09-13T13:18:48.966Z,10.40
2022-09-13T13:21:55.787Z,9.00
2022-09-13T13:24:49.165Z,12.90
2022-09-13T13:28:02.642Z,11.60
2022-09-13T13:30:57.505Z,11.30
2022-09-13T13:34:20.331Z,12.00
2022-09-13T13:37:29.243Z,11.90
2022-09-13T13:40:41.727Z,13.40
2022-09-13T13:43:54.586Z,13.80
2022-09-13T13:46:40.815Z,13.80
2022-09-13T13:50:04.051Z,14.70
2022-09-13T13:53:05.657Z,11.60
2022-09-13T13:56:08.516Z,10.70
2022-09-13T13:59:45.612Z,13.00
2022-09-13T14:03:04.724Z,9.10
2022-09-13T14:06:46.426Z,12.20
2022-09-13T14:10:03.014Z,10.40
2022-09-13T14:13:26.034Z,8.90
2022-09-13T14:16:41.476Z,10.50
2022-09-13T14:19:51.455Z,6.80
2022-09-13T14:22:42.102Z,8.20
2022-09-13T14:26:18.681Z,9.10
2022-09-13T14:29:37.472Z,7.80
2022-09-13T14:32:42.446Z,12.40
2022-09-13T14:36:06.076Z,8.10
2022-09-13T14:39:12.118Z,12.30
2022-09-13T14:43:09.962Z,9.60
2022-09-13T14:47:05.593Z,9.90
2022-09-13T14:50:21.443Z,11.90
2022-09-13T14:53:47.399Z,10.20
2022-09-13T14:56:41.870Z,14.70
2022-09-13T15:00:13.643Z,11.90
2022-09-13T15:03:05.254Z,16.40
2022-09-13T15:05:57.345Z,11.50
2022-09-13T15:09:31.057Z,11.00
2022-09-13T15:13:15.816Z,10.80
2022-09-13T15:16:58.257Z,11.80
2022-09-13T15:20:22.390Z,14.20
2022-09-13T15:23:55.776Z,11.10
2022-09-13T15:27:36.316Z,11.70
2022-09-13T15:30:52.799Z,11.50
2022-09-13T15:34:11.487Z,11.50
2022-09-13T15:37:56.241Z,12.80
2022-09-13T15:41:33.304Z,10.80
2022-09-13T15:44:59.392Z,12.90
2022-09-13T15:48:21.146Z,11.10
2022-09-13T15:51:51.901Z,12.50
2022-09-13T15:55:14.501Z,11.30
2022-09-13T15:58:02.852Z,15.30
2022-09-13T16:02:06.819Z,12.00
2022-09-13T16:05:50.521Z,9.60
2022-09-13T16:09:25.124Z,13.90
2022-09-13T16:12:58.475Z,12.60
2022-09-13T16:16:12.846Z,14.10
2022-09-13T16:19:49.442Z,11.70
2022-09-13T16:22:52.767Z,12.00
2022-09-13T16:26:07.884Z,14.80
2022-09-13T16:30:11.947Z,18.40
2022-09-13T16:34:05.761Z,17.50
2022-09-13T16:37:10.082Z,18.10
2022-09-13T16:40:45.386Z,17.40
2022-09-13T16:44:29.161Z,20.40
2022-09-13T16:47:52.738Z,19.80
2022-09-13T16:51:17.978Z,19.00
2022-09-13T16:55:05.420Z,25.50
2022-09-13T16:58:28.715Z,21.50
2022-09-13T17:01:51.180Z,22.50
2022-09-13T17:05:14.498Z,24.30
2022-09-13T17:09:19.071Z,26.10
2022-09-13T17:12:30.638Z,25.10
2022-09-13T17:15:56.792Z,25.10
2022-09-13T17:19:02.729Z,23.60
2022-09-13T17:22:32.759Z,23.80
2022-09-13T17:26:23.103Z,24.20
2022-09-13T17:29:46.432Z,23.40
2022-09-13T17:33:03.722Z,26.30
2022-09-13T17:36:36.920Z,26.90
2022-09-13T17:39:49.869Z,24.80
2022-09-13T17:42:58.418Z,24.80
2022-09-13T17:46:45.329Z,25.60
2022-09-13T17:49:59.797Z,24.40
2022-09-13T17:53:43.283Z,26.00
2022-09-13T17:57:13.517Z,25.20
2022-09-13T18:00:47.189Z,25.70
2022-09-13T18:04:07.676Z,27.10
2022-09-13T18:07:23.220Z,30.70
2022-09-13T18:11:12.640Z,25.70
2022-09-13T18:14:29.645Z,30.10
2022-09-13T18:17:44.899Z,26.60
2022-09-13T18:21:29.725Z,25.60
2022-09-13T18:24:39.348Z,28.90
2022-09-13T18:28:01.432Z,31.40
2022-09-13T18:31:27.416Z,28.20
2022-09-13T18:34:36.036Z,26.80
2022-09-13T18:38:05.122Z,27.50
2022-09-13T18:41:41.866Z,29.30
2022-09-13T18:45:03.870Z,25.50
2022-09-13T18:48:40.207Z,27.30
2022-09-13T18:51:59.836Z,25.90
2022-09-13T18:55:16.850Z,29.80
2022-09-13T18:58:53.902Z,28.60
2022-09-13T19:02:47.861Z,27.60
2022-09-13T19:06:01.346Z,27.20
2022-09-13T19:09:26.221Z,31.70
2022-09-13T19:12:39.527Z,24.50
2022-09-13T19:15:53.281Z,24.80
2022-09-13T19:19:21.086Z,25.20
2022-09-13T19:22:29.379Z,26.00
2022-09-13T19:25:58.241Z,25.90
2022-09-13T19:29:47.266Z,30.20
2022-09-13T19:33:24.778Z,23.60
2022-09-13T19:37:08.115Z,23.00
2022-09-13T19:40:35.240Z,21.10
2022-09-13T19:43:50.185Z,22.40
2022-09-13T19:47:45.066Z,32.40
2022-09-13T19:50:52.515Z,54.00
2022-09-13T19:54:26.405Z,28.10
2022-09-13T19:58:09.849Z,22.20
2022-09-13T20:01:46.547Z,24.60
2022-09-13T20:05:35.676Z,25.50
2022-09-13T20:09:13.525Z,29.10
2022-09-13T20:12:30.533Z,33.60
2022-09-13T20:16:15.443Z,20.40
2022-09-13T20:20:01.881Z,22.30
2022-09-13T20:23:36.316Z,26.20
2022-09-13T20:27:03.114Z,26.50
2022-09-13T20:30:26.427Z,24.30
2022-09-13T20:33:59.905Z,23.40
2022-09-13T20:41:15.665Z,29.40
2022-09-13T20:48:19.934Z,23.70
2022-09-13T20:52:03.499Z,26.80
2022-09-13T20:55:48.975Z,26.10
2022-09-13T20:59:00.531Z,29.10
2022-09-13T21:02:24.552Z,24.20
2022-09-13T21:05:56.422Z,21.90
2022-09-13T21:09:40.082Z,26.00
2022-09-13T21:12:53.450Z,28.30
2022-09-13T21:16:10.062Z,23.90
2022-09-13T21:19:37.800Z,26.00
2022-09-13T21:23:01.720Z,30.80
2022-09-13T21:26:38.990Z,29.20
2022-09-13T21:29:54.763Z,27.60
2022-09-13T21:33:52.131Z,31.80
2022-09-13T21:36:54.899Z,25.50
2022-09-13T21:40:28.819Z,27.80
2022-09-13T21:44:26.866Z,27.80
2022-09-13T21:47:33.143Z,27.20
2022-09-13T21:50:59.449Z,30.50
2022-09-13T21:54:12.255Z,28.40
2022-09-13T21:57:25.869Z,27.50
2022-09-13T22:01:29.871Z,26.30
2022-09-13T22:05:12.712Z,30.70
2022-09-13T22:08:58.783Z,30.00
2022-09-13T22:12:13.832Z,28.00
2022-09-13T22:15:57.623Z,25.00
2022-09-13T22:19:33.259Z,23.60
2022-09-13T22:22:56.166Z,26.50
2022-09-13T22:26:32.373Z,26.00
2022-09-13T22:30:06.109Z,24.80
2022-09-13T22:33:52.871Z,26.00
2022-09-13T22:37:21.397Z,30.70
2022-09-13T22:40:45.884Z,25.30
2022-09-13T22:44:10.784Z,26.10
2022-09-13T22:48:04.585Z,52.60
2022-09-13T22:51:38.852Z,27.50
2022-09-13T22:55:42.666Z,23.50
2022-09-13T22:59:19.270Z,37.40
2022-09-13T23:03:23.172Z,37.30
2022-09-13T23:07:19.918Z,21.00
2022-09-13T23:10:55.002Z,23.60
2022-09-13T23:14:22.275Z,25.40
2022-09-13T23:18:08.139Z,22.70
2022-09-13T23:22:03.523Z,23.60
2022-09-13T23:25:56.487Z,24.50
2022-09-13T23:29:25.813Z,26.10
2022-09-13T23:33:23.423Z,24.10
2022-09-13T23:37:17.091Z,26.40
2022-09-13T23:41:13.397Z,24.40
2022-09-13T23:44:49.019Z,25.50
2022-09-13T23:48:20.520Z,24.10
2022-09-13T23:52:15.272Z,26.00
2022-09-13T23:56:03.781Z,27.50
